Tasman — ZDKI2 — position and weather

sailwx.info

Track history (hours):
 
Tides and Currents Weather Stations Pressure Air Temp Water Temp Dewpoint Dewpoint Depression Visibility Wind Speed Wind Dir Waves Ship Positions

Tasman

Last reported at 2014-Nov-12 20:20 UTC. Time now 2014-Nov-20 23:02 UTC.
Position N 41°21' E 029°12'.
Warning: this ship's position is 8 days out of date.

Length 90 m; draft 4 m.

Type: Ship. MMSI: 23617000.

Date/timePositionNaut miles runAvg speedWind from/ knotsBaromVisibWave heightAir tempDewpointWater temp
2014-Nov-12 20:20N 41°21' E 029°12'2210.8
2014-Nov-12 18:19N 41°02' E 029°00'6 7.6
2014-Nov-12 17:33N 40°56' E 028°59'5 5.4
2014-Nov-12 16:33N 40°51' E 029°02'5 4.9
2014-Nov-12 15:33N 40°48' E 029°07'7 7.0
2014-Nov-12 14:33N 40°45' E 029°16'1211.5
2014-Nov-12 13:33N 40°45' E 029°31'  
2014-Nov-08 08:17N 40°44' E 029°40'1110.3
2014-Nov-08 07:14N 40°44' E 029°26'5 7.8
2014-Nov-08 06:33N 40°44' E 029°19'1111.1
2014-Nov-08 05:33N 40°44' E 029°05'1211.5
2014-Nov-08 04:33N 40°44' E 028°49'1211.5
2014-Nov-08 03:30N 40°44' E 028°33'19210.0
2014-Nov-07 08:11N 38°50' E 025°12'2211.4
2014-Nov-07 06:18N 38°31' E 025°00'811.1
2014-Nov-07 05:33N 38°23' E 024°56'3511.6
2014-Nov-07 02:31N 37°53' E 024°33'1311.1
2014-Nov-07 01:22N 37°45' E 024°20'911.2
2014-Nov-07 00:33N 37°38' E 024°13'1211.4
2014-Nov-06 23:31N 37°28' E 024°04'1111.0
2014-Nov-06 22:32N 37°19' E 023°57'1111.0
2014-Nov-06 21:33N 37°10' E 023°50'1311.1
2014-Nov-06 20:22N 36°58' E 023°42'911.0
2014-Nov-06 19:33N 36°51' E 023°36'1111.1
2014-Nov-06 18:33N 36°42' E 023°28'1110.8
2014-Nov-06 17:32N 36°32' E 023°21'1310.6
2014-Nov-06 16:18N 36°22' E 023°11'912.0
2014-Nov-06 15:33N 36°24' E 023°01'415 9.0
2014-Nov-04 17:33N 36°43' E 014°24'1110.8
2014-Nov-04 16:33N 36°45' E 014°11'1010.3
2014-Nov-04 15:33N 36°48' E 013°58'  
Track history (hours):
 
Tides and Currents Weather Stations Pressure Air Temp Water Temp Dewpoint Dewpoint Depression Visibility Wind Speed Wind Dir Waves Ship Positions

Tasman

Last reported at 2014-Nov-12 20:20 UTC. Time now 2014-Nov-20 23:02 UTC.
Position N 41°21' E 029°12'.
Warning: this ship's position is 8 days out of date.

Length 90 m; draft 4 m.

Type: Ship. MMSI: 23617000.

Date/timePositionNaut miles runAvg speedWind from/ knotsBaromVisibWave heightAir tempDewpointWater temp
2014-Nov-12 20:20N 41°21' E 029°12'2210.8
2014-Nov-12 18:19N 41°02' E 029°00'6 7.6
2014-Nov-12 17:33N 40°56' E 028°59'5 5.4
2014-Nov-12 16:33N 40°51' E 029°02'5 4.9
2014-Nov-12 15:33N 40°48' E 029°07'7 7.0
2014-Nov-12 14:33N 40°45' E 029°16'1211.5
2014-Nov-12 13:33N 40°45' E 029°31'  
2014-Nov-08 08:17N 40°44' E 029°40'1110.3
2014-Nov-08 07:14N 40°44' E 029°26'5 7.8
2014-Nov-08 06:33N 40°44' E 029°19'1111.1
2014-Nov-08 05:33N 40°44' E 029°05'1211.5
2014-Nov-08 04:33N 40°44' E 028°49'1211.5
2014-Nov-08 03:30N 40°44' E 028°33'19210.0
2014-Nov-07 08:11N 38°50' E 025°12'2211.4
2014-Nov-07 06:18N 38°31' E 025°00'811.1
2014-Nov-07 05:33N 38°23' E 024°56'3511.6
2014-Nov-07 02:31N 37°53' E 024°33'1311.1
2014-Nov-07 01:22N 37°45' E 024°20'911.2
2014-Nov-07 00:33N 37°38' E 024°13'1211.4
2014-Nov-06 23:31N 37°28' E 024°04'1111.0
2014-Nov-06 22:32N 37°19' E 023°57'1111.0
2014-Nov-06 21:33N 37°10' E 023°50'1311.1
2014-Nov-06 20:22N 36°58' E 023°42'911.0
2014-Nov-06 19:33N 36°51' E 023°36'1111.1
2014-Nov-06 18:33N 36°42' E 023°28'1110.8
2014-Nov-06 17:32N 36°32' E 023°21'1310.6
2014-Nov-06 16:18N 36°22' E 023°11'912.0
2014-Nov-06 15:33N 36°24' E 023°01'415 9.0
2014-Nov-04 17:33N 36°43' E 014°24'1110.8
2014-Nov-04 16:33N 36°45' E 014°11'1010.3
2014-Nov-04 15:33N 36°48' E 013°58'  

Dump ship's entire track history